sensor_id;sensor_type;location;lat;lon;timestamp;temperature;humidity
10660;DHT22;5378;53.206;13.316;2023-02-12T00:02:02;8.60;99.90
10660;DHT22;5378;53.206;13.316;2023-02-12T00:04:49;8.50;99.90
10660;DHT22;5378;53.206;13.316;2023-02-12T00:07:36;8.60;99.90
10660;DHT22;5378;53.206;13.316;2023-02-12T00:10:25;8.60;99.90
10660;DHT22;5378;53.206;13.316;2023-02-12T00:13:12;8.60;99.90
10660;DHT22;5378;53.206;13.316;2023-02-12T00:16:03;8.60;99.90
10660;DHT22;5378;53.206;13.316;2023-02-12T00:18:52;8.50;99.90
10660;DHT22;5378;53.206;13.316;2023-02-12T00:21:39;8.50;99.90
10660;DHT22;5378;53.206;13.316;2023-02-12T00:24:26;8.40;99.90
10660;DHT22;5378;53.206;13.316;2023-02-12T00:27:15;8.40;99.90
10660;DHT22;5378;53.206;13.316;2023-02-12T00:30:02;8.40;99.90
10660;DHT22;5378;53.206;13.316;2023-02-12T00:32:49;8.40;99.90
10660;DHT22;5378;53.206;13.316;2023-02-12T00:35:38;8.40;99.90
10660;DHT22;5378;53.206;13.316;2023-02-12T00:38:25;8.40;99.90
10660;DHT22;5378;53.206;13.316;2023-02-12T00:41:12;8.30;99.90
10660;DHT22;5378;53.206;13.316;2023-02-12T00:44:01;8.30;99.90
10660;DHT22;5378;53.206;13.316;2023-02-12T00:46:48;8.30;99.90
10660;DHT22;5378;53.206;13.316;2023-02-12T00:49:35;8.30;99.90
10660;DHT22;5378;53.206;13.316;2023-02-12T00:52:22;8.30;99.90
10660;DHT22;5378;53.206;13.316;2023-02-12T00:55:09;8.20;99.90
10660;DHT22;5378;53.206;13.316;2023-02-12T00:57:56;8.10;99.90
10660;DHT22;5378;53.206;13.316;2023-02-12T01:00:45;8.00;99.90
10660;DHT22;5378;53.206;13.316;2023-02-12T01:03:33;7.80;99.90
10660;DHT22;5378;53.206;13.316;2023-02-12T01:06:20;7.70;99.90
10660;DHT22;5378;53.206;13.316;2023-02-12T01:09:07;7.50;99.90
10660;DHT22;5378;53.206;13.316;2023-02-12T01:11:54;7.40;99.90
10660;DHT22;5378;53.206;13.316;2023-02-12T01:14:42;7.30;99.90
10660;DHT22;5378;53.206;13.316;2023-02-12T01:17:30;7.20;99.90
10660;DHT22;5378;53.206;13.316;2023-02-12T01:20:19;7.10;99.90
10660;DHT22;5378;53.206;13.316;2023-02-12T01:23:07;7.20;99.90
10660;DHT22;5378;53.206;13.316;2023-02-12T01:25:54;7.20;99.90
10660;DHT22;5378;53.206;13.316;2023-02-12T01:28:44;7.30;99.90
10660;DHT22;5378;53.206;13.316;2023-02-12T01:31:33;7.40;99.90
10660;DHT22;5378;53.206;13.316;2023-02-12T01:34:23;7.40;99.90
10660;DHT22;5378;53.206;13.316;2023-02-12T01:37:11;7.40;99.90
10660;DHT22;5378;53.206;13.316;2023-02-12T01:39:58;7.40;99.90
10660;DHT22;5378;53.206;13.316;2023-02-12T01:42:45;7.40;99.90
10660;DHT22;5378;53.206;13.316;2023-02-12T01:45:46;7.20;99.90
10660;DHT22;5378;53.206;13.316;2023-02-12T01:48:37;7.20;99.90
10660;DHT22;5378;53.206;13.316;2023-02-12T01:51:27;7.20;99.90
10660;DHT22;5378;53.206;13.316;2023-02-12T01:54:16;7.30;99.90
10660;DHT22;5378;53.206;13.316;2023-02-12T01:57:07;7.40;99.90
10660;DHT22;5378;53.206;13.316;2023-02-12T01:59:56;7.50;99.90
10660;DHT22;5378;53.206;13.316;2023-02-12T02:02:45;7.60;99.90
10660;DHT22;5378;53.206;13.316;2023-02-12T02:05:40;7.70;99.90
10660;DHT22;5378;53.206;13.316;2023-02-12T02:08:29;7.70;99.90
10660;DHT22;5378;53.206;13.316;2023-02-12T02:11:16;7.60;99.90
10660;DHT22;5378;53.206;13.316;2023-02-12T02:14:23;7.60;99.90
10660;DHT22;5378;53.206;13.316;2023-02-12T02:17:46;7.70;99.90
10660;DHT22;5378;53.206;13.316;2023-02-12T02:21:10;7.70;99.90
10660;DHT22;5378;53.206;13.316;2023-02-12T02:27:29;7.60;99.90
10660;DHT22;5378;53.206;13.316;2023-02-12T02:30:30;7.50;99.90
10660;DHT22;5378;53.206;13.316;2023-02-12T02:33:29;7.50;99.90
10660;DHT22;5378;53.206;13.316;2023-02-12T02:36:24;7.60;99.90
10660;DHT22;5378;53.206;13.316;2023-02-12T02:39:19;7.60;99.90
10660;DHT22;5378;53.206;13.316;2023-02-12T02:42:13;7.50;99.90
10660;DHT22;5378;53.206;13.316;2023-02-12T02:45:06;7.60;99.90
10660;DHT22;5378;53.206;13.316;2023-02-12T02:47:58;7.60;99.90
10660;DHT22;5378;53.206;13.316;2023-02-12T02:50:52;7.70;99.90
10660;DHT22;5378;53.206;13.316;2023-02-12T02:53:44;7.70;99.90
10660;DHT22;5378;53.206;13.316;2023-02-12T02:56:35;7.70;99.90
10660;DHT22;5378;53.206;13.316;2023-02-12T02:59:25;7.80;99.90
10660;DHT22;5378;53.206;13.316;2023-02-12T03:02:17;7.80;99.90
10660;DHT22;5378;53.206;13.316;2023-02-12T03:05:09;7.80;99.90
10660;DHT22;5378;53.206;13.316;2023-02-12T03:08:06;7.80;99.90
10660;DHT22;5378;53.206;13.316;2023-02-12T03:10:57;7.80;99.90
10660;DHT22;5378;53.206;13.316;2023-02-12T03:13:48;7.70;99.90
10660;DHT22;5378;53.206;13.316;2023-02-12T03:16:40;7.70;99.90
10660;DHT22;5378;53.206;13.316;2023-02-12T03:19:33;7.80;99.90
10660;DHT22;5378;53.206;13.316;2023-02-12T03:22:27;7.80;99.90
10660;DHT22;5378;53.206;13.316;2023-02-12T03:25:17;7.90;99.90
10660;DHT22;5378;53.206;13.316;2023-02-12T03:28:08;7.80;99.90
10660;DHT22;5378;53.206;13.316;2023-02-12T03:30:59;7.80;99.90
10660;DHT22;5378;53.206;13.316;2023-02-12T03:33:55;7.90;99.90
10660;DHT22;5378;53.206;13.316;2023-02-12T03:36:47;7.90;99.90
10660;DHT22;5378;53.206;13.316;2023-02-12T03:39:48;8.00;99.90
10660;DHT22;5378;53.206;13.316;2023-02-12T03:42:41;7.90;99.90
10660;DHT22;5378;53.206;13.316;2023-02-12T03:45:39;8.00;99.90
10660;DHT22;5378;53.206;13.316;2023-02-12T03:48:30;7.90;99.90
10660;DHT22;5378;53.206;13.316;2023-02-12T03:51:22;7.90;99.90
10660;DHT22;5378;53.206;13.316;2023-02-12T03:54:14;7.90;99.90
10660;DHT22;5378;53.206;13.316;2023-02-12T03:57:07;8.00;99.90
10660;DHT22;5378;53.206;13.316;2023-02-12T03:59:56;8.00;99.90
10660;DHT22;5378;53.206;13.316;2023-02-12T04:02:44;8.10;99.90
10660;DHT22;5378;53.206;13.316;2023-02-12T04:05:32;8.10;99.90
10660;DHT22;5378;53.206;13.316;2023-02-12T04:08:19;8.00;99.90
10660;DHT22;5378;53.206;13.316;2023-02-12T04:11:19;8.00;99.90
10660;DHT22;5378;53.206;13.316;2023-02-12T04:14:16;8.00;99.90
10660;DHT22;5378;53.206;13.316;2023-02-12T04:17:11;8.00;99.90
10660;DHT22;5378;53.206;13.316;2023-02-12T04:20:07;8.10;99.90
10660;DHT22;5378;53.206;13.316;2023-02-12T04:23:06;8.10;99.90
10660;DHT22;5378;53.206;13.316;2023-02-12T04:26:01;8.10;99.90
10660;DHT22;5378;53.206;13.316;2023-02-12T04:28:58;8.00;99.90
10660;DHT22;5378;53.206;13.316;2023-02-12T04:31:55;8.00;99.90
10660;DHT22;5378;53.206;13.316;2023-02-12T04:34:48;8.10;99.90
10660;DHT22;5378;53.206;13.316;2023-02-12T04:37:39;8.00;99.90
10660;DHT22;5378;53.206;13.316;2023-02-12T04:40:27;8.00;99.90
10660;DHT22;5378;53.206;13.316;2023-02-12T04:43:14;8.00;99.90
10660;DHT22;5378;53.206;13.316;2023-02-12T04:46:11;8.00;99.90
10660;DHT22;5378;53.206;13.316;2023-02-12T04:49:00;8.00;99.90
10660;DHT22;5378;53.206;13.316;2023-02-12T04:51:48;7.90;99.90
10660;DHT22;5378;53.206;13.316;2023-02-12T04:54:35;7.90;99.90
10660;DHT22;5378;53.206;13.316;2023-02-12T04:57:22;7.80;99.90
10660;DHT22;5378;53.206;13.316;2023-02-12T05:00:12;7.80;99.90
10660;DHT22;5378;53.206;13.316;2023-02-12T05:03:00;7.70;99.90
10660;DHT22;5378;53.206;13.316;2023-02-12T05:05:48;7.60;99.90
10660;DHT22;5378;53.206;13.316;2023-02-12T05:08:35;7.60;99.90
10660;DHT22;5378;53.206;13.316;2023-02-12T05:11:22;7.70;99.90
10660;DHT22;5378;53.206;13.316;2023-02-12T05:14:10;7.60;99.90
10660;DHT22;5378;53.206;13.316;2023-02-12T05:16:57;7.70;99.90
10660;DHT22;5378;53.206;13.316;2023-02-12T05:19:46;7.70;99.90
10660;DHT22;5378;53.206;13.316;2023-02-12T05:22:35;7.70;99.90
10660;DHT22;5378;53.206;13.316;2023-02-12T05:25:22;7.70;99.90
10660;DHT22;5378;53.206;13.316;2023-02-12T05:28:09;7.70;99.90
10660;DHT22;5378;53.206;13.316;2023-02-12T05:30:58;7.70;99.90
10660;DHT22;5378;53.206;13.316;2023-02-12T05:33:47;7.70;99.90
10660;DHT22;5378;53.206;13.316;2023-02-12T05:36:34;7.60;99.90
10660;DHT22;5378;53.206;13.316;2023-02-12T05:39:23;7.40;99.90
10660;DHT22;5378;53.206;13.316;2023-02-12T05:42:10;7.40;99.90
10660;DHT22;5378;53.206;13.316;2023-02-12T05:44:57;7.30;99.90
10660;DHT22;5378;53.206;13.316;2023-02-12T05:47:44;7.30;99.90
10660;DHT22;5378;53.206;13.316;2023-02-12T05:50:32;7.40;99.90
10660;DHT22;5378;53.206;13.316;2023-02-12T05:53:26;7.20;99.90
10660;DHT22;5378;53.206;13.316;2023-02-12T05:56:16;7.20;99.90
10660;DHT22;5378;53.206;13.316;2023-02-12T05:59:05;7.20;99.90
10660;DHT22;5378;53.206;13.316;2023-02-12T06:01:52;7.10;99.90
10660;DHT22;5378;53.206;13.316;2023-02-12T06:04:40;7.10;99.90
10660;DHT22;5378;53.206;13.316;2023-02-12T06:07:27;7.10;99.90
10660;DHT22;5378;53.206;13.316;2023-02-12T06:10:15;7.00;99.90
10660;DHT22;5378;53.206;13.316;2023-02-12T06:13:03;7.10;99.90
10660;DHT22;5378;53.206;13.316;2023-02-12T06:15:51;7.00;99.90
10660;DHT22;5378;53.206;13.316;2023-02-12T06:18:38;6.90;99.90
10660;DHT22;5378;53.206;13.316;2023-02-12T06:21:26;6.80;99.90
10660;DHT22;5378;53.206;13.316;2023-02-12T06:24:14;6.80;99.90
10660;DHT22;5378;53.206;13.316;2023-02-12T06:27:02;6.80;99.90
10660;DHT22;5378;53.206;13.316;2023-02-12T06:29:50;6.90;99.90
10660;DHT22;5378;53.206;13.316;2023-02-12T06:32:37;6.90;99.90
10660;DHT22;5378;53.206;13.316;2023-02-12T06:35:24;7.00;99.90
10660;DHT22;5378;53.206;13.316;2023-02-12T06:38:12;7.10;99.90
10660;DHT22;5378;53.206;13.316;2023-02-12T06:41:00;7.10;99.90
10660;DHT22;5378;53.206;13.316;2023-02-12T06:43:48;7.10;99.90
10660;DHT22;5378;53.206;13.316;2023-02-12T06:46:36;7.20;99.90
10660;DHT22;5378;53.206;13.316;2023-02-12T06:49:23;7.20;99.90
10660;DHT22;5378;53.206;13.316;2023-02-12T06:52:10;7.30;99.90
10660;DHT22;5378;53.206;13.316;2023-02-12T06:54:58;7.40;99.90
10660;DHT22;5378;53.206;13.316;2023-02-12T06:57:45;7.50;99.90
10660;DHT22;5378;53.206;13.316;2023-02-12T07:00:32;7.40;99.90
10660;DHT22;5378;53.206;13.316;2023-02-12T07:03:20;7.40;99.90
10660;DHT22;5378;53.206;13.316;2023-02-12T07:06:09;7.50;99.90
10660;DHT22;5378;53.206;13.316;2023-02-12T07:08:56;7.50;99.90
10660;DHT22;5378;53.206;13.316;2023-02-12T07:11:44;7.40;99.90
10660;DHT22;5378;53.206;13.316;2023-02-12T07:14:31;7.40;99.90
10660;DHT22;5378;53.206;13.316;2023-02-12T07:17:18;7.30;99.90
10660;DHT22;5378;53.206;13.316;2023-02-12T07:20:08;7.40;99.90
10660;DHT22;5378;53.206;13.316;2023-02-12T07:22:55;7.40;99.90
10660;DHT22;5378;53.206;13.316;2023-02-12T07:25:42;7.50;99.90
10660;DHT22;5378;53.206;13.316;2023-02-12T07:28:29;7.60;99.90
10660;DHT22;5378;53.206;13.316;2023-02-12T07:31:19;7.60;99.90
10660;DHT22;5378;53.206;13.316;2023-02-12T07:34:09;7.60;99.90
10660;DHT22;5378;53.206;13.316;2023-02-12T07:36:58;7.60;99.90
10660;DHT22;5378;53.206;13.316;2023-02-12T07:39:45;7.70;99.90
10660;DHT22;5378;53.206;13.316;2023-02-12T07:42:32;7.60;99.90
10660;DHT22;5378;53.206;13.316;2023-02-12T07:45:23;7.60;99.90
10660;DHT22;5378;53.206;13.316;2023-02-12T07:48:10;7.50;99.90
10660;DHT22;5378;53.206;13.316;2023-02-12T07:51:02;7.60;99.90
10660;DHT22;5378;53.206;13.316;2023-02-12T07:53:50;7.60;99.90
10660;DHT22;5378;53.206;13.316;2023-02-12T07:56:39;7.60;99.90
10660;DHT22;5378;53.206;13.316;2023-02-12T07:59:26;7.60;99.90
10660;DHT22;5378;53.206;13.316;2023-02-12T08:02:14;7.60;99.90
10660;DHT22;5378;53.206;13.316;2023-02-12T08:05:01;7.70;99.90
10660;DHT22;5378;53.206;13.316;2023-02-12T08:07:48;7.70;99.90
10660;DHT22;5378;53.206;13.316;2023-02-12T08:10:36;7.60;99.90
10660;DHT22;5378;53.206;13.316;2023-02-12T08:13:23;7.60;99.90
10660;DHT22;5378;53.206;13.316;2023-02-12T08:16:12;7.50;99.90
10660;DHT22;5378;53.206;13.316;2023-02-12T08:18:59;7.60;99.90
10660;DHT22;5378;53.206;13.316;2023-02-12T08:22:00;7.70;99.90
10660;DHT22;5378;53.206;13.316;2023-02-12T08:24:47;7.90;99.90
10660;DHT22;5378;53.206;13.316;2023-02-12T08:27:36;8.00;99.90
10660;DHT22;5378;53.206;13.316;2023-02-12T08:30:23;8.10;99.90
10660;DHT22;5378;53.206;13.316;2023-02-12T08:33:10;8.20;99.90
10660;DHT22;5378;53.206;13.316;2023-02-12T08:36:02;8.30;99.90
10660;DHT22;5378;53.206;13.316;2023-02-12T08:38:50;8.40;99.90
10660;DHT22;5378;53.206;13.316;2023-02-12T08:41:37;8.50;99.90
10660;DHT22;5378;53.206;13.316;2023-02-12T08:44:26;8.50;99.90
10660;DHT22;5378;53.206;13.316;2023-02-12T08:47:13;8.60;99.90
10660;DHT22;5378;53.206;13.316;2023-02-12T08:50:00;8.70;99.90
10660;DHT22;5378;53.206;13.316;2023-02-12T08:52:47;8.70;99.90
10660;DHT22;5378;53.206;13.316;2023-02-12T08:55:34;8.70;99.90
10660;DHT22;5378;53.206;13.316;2023-02-12T08:58:21;8.80;99.90
10660;DHT22;5378;53.206;13.316;2023-02-12T09:01:11;9.00;99.90
10660;DHT22;5378;53.206;13.316;2023-02-12T09:03:59;9.00;99.90
10660;DHT22;5378;53.206;13.316;2023-02-12T09:06:47;9.00;99.90
10660;DHT22;5378;53.206;13.316;2023-02-12T09:09:34;9.10;99.90
10660;DHT22;5378;53.206;13.316;2023-02-12T09:12:21;9.10;99.90
10660;DHT22;5378;53.206;13.316;2023-02-12T09:15:08;9.10;99.90
10660;DHT22;5378;53.206;13.316;2023-02-12T09:17:58;9.10;99.90
10660;DHT22;5378;53.206;13.316;2023-02-12T09:20:48;9.20;99.90
10660;DHT22;5378;53.206;13.316;2023-02-12T09:23:36;9.20;99.90
10660;DHT22;5378;53.206;13.316;2023-02-12T09:26:24;9.30;99.90
10660;DHT22;5378;53.206;13.316;2023-02-12T09:29:11;9.20;99.90
10660;DHT22;5378;53.206;13.316;2023-02-12T09:31:58;9.20;99.90
10660;DHT22;5378;53.206;13.316;2023-02-12T09:34:48;9.10;99.90
10660;DHT22;5378;53.206;13.316;2023-02-12T09:37:35;9.10;99.90
10660;DHT22;5378;53.206;13.316;2023-02-12T09:40:27;9.00;99.90
10660;DHT22;5378;53.206;13.316;2023-02-12T09:43:19;8.90;99.90
10660;DHT22;5378;53.206;13.316;2023-02-12T09:46:17;8.90;99.90
10660;DHT22;5378;53.206;13.316;2023-02-12T09:49:08;8.90;99.90
10660;DHT22;5378;53.206;13.316;2023-02-12T09:51:57;9.00;99.90
10660;DHT22;5378;53.206;13.316;2023-02-12T09:54:46;9.10;99.90
10660;DHT22;5378;53.206;13.316;2023-02-12T09:57:35;9.10;99.90
10660;DHT22;5378;53.206;13.316;2023-02-12T10:00:25;9.20;99.90
10660;DHT22;5378;53.206;13.316;2023-02-12T10:03:16;9.10;99.90
10660;DHT22;5378;53.206;13.316;2023-02-12T10:06:05;9.10;99.90
10660;DHT22;5378;53.206;13.316;2023-02-12T10:09:17;9.00;99.90
10660;DHT22;5378;53.206;13.316;2023-02-12T10:12:12;8.90;99.90
10660;DHT22;5378;53.206;13.316;2023-02-12T10:15:13;8.80;99.90
10660;DHT22;5378;53.206;13.316;2023-02-12T10:18:15;8.80;99.90
10660;DHT22;5378;53.206;13.316;2023-02-12T10:21:14;8.60;99.90
10660;DHT22;5378;53.206;13.316;2023-02-12T10:24:28;8.60;99.90
10660;DHT22;5378;53.206;13.316;2023-02-12T10:27:23;8.70;99.90
10660;DHT22;5378;53.206;13.316;2023-02-12T10:30:19;8.90;99.90
10660;DHT22;5378;53.206;13.316;2023-02-12T10:33:12;8.90;99.90
10660;DHT22;5378;53.206;13.316;2023-02-12T10:36:03;8.90;99.90
10660;DHT22;5378;53.206;13.316;2023-02-12T10:38:57;8.90;99.90
10660;DHT22;5378;53.206;13.316;2023-02-12T10:41:51;8.90;99.90
10660;DHT22;5378;53.206;13.316;2023-02-12T10:44:40;8.90;99.90
10660;DHT22;5378;53.206;13.316;2023-02-12T10:47:27;8.90;99.90
10660;DHT22;5378;53.206;13.316;2023-02-12T10:50:20;9.10;99.90
10660;DHT22;5378;53.206;13.316;2023-02-12T10:53:17;9.20;99.90
10660;DHT22;5378;53.206;13.316;2023-02-12T10:56:13;9.20;99.90
10660;DHT22;5378;53.206;13.316;2023-02-12T10:59:03;9.30;99.90
10660;DHT22;5378;53.206;13.316;2023-02-12T11:01:50;9.40;99.90
10660;DHT22;5378;53.206;13.316;2023-02-12T11:04:37;9.50;99.90
10660;DHT22;5378;53.206;13.316;2023-02-12T11:07:26;9.50;99.90
10660;DHT22;5378;53.206;13.316;2023-02-12T11:10:20;9.70;99.90
10660;DHT22;5378;53.206;13.316;2023-02-12T11:13:21;9.80;99.90
10660;DHT22;5378;53.206;13.316;2023-02-12T11:16:10;9.80;99.90
10660;DHT22;5378;53.206;13.316;2023-02-12T11:19:00;9.80;99.90
10660;DHT22;5378;53.206;13.316;2023-02-12T11:21:49;9.90;99.90
10660;DHT22;5378;53.206;13.316;2023-02-12T11:24:37;9.90;99.90
10660;DHT22;5378;53.206;13.316;2023-02-12T11:27:25;10.00;99.90
10660;DHT22;5378;53.206;13.316;2023-02-12T11:30:16;10.30;99.90
10660;DHT22;5378;53.206;13.316;2023-02-12T11:33:18;10.30;99.90
10660;DHT22;5378;53.206;13.316;2023-02-12T11:36:14;10.40;99.90
10660;DHT22;5378;53.206;13.316;2023-02-12T11:39:04;10.40;99.90
10660;DHT22;5378;53.206;13.316;2023-02-12T11:41:54;10.50;99.90
10660;DHT22;5378;53.206;13.316;2023-02-12T11:44:47;10.40;99.90
10660;DHT22;5378;53.206;13.316;2023-02-12T11:47:39;10.20;99.90
10660;DHT22;5378;53.206;13.316;2023-02-12T11:50:29;10.10;99.90
10660;DHT22;5378;53.206;13.316;2023-02-12T11:53:20;9.90;99.90
10660;DHT22;5378;53.206;13.316;2023-02-12T11:56:10;9.70;99.90
10660;DHT22;5378;53.206;13.316;2023-02-12T11:59:10;9.60;99.90
10660;DHT22;5378;53.206;13.316;2023-02-12T12:02:03;9.50;99.90
10660;DHT22;5378;53.206;13.316;2023-02-12T12:04:55;9.50;99.90
10660;DHT22;5378;53.206;13.316;2023-02-12T12:07:54;9.40;99.90
10660;DHT22;5378;53.206;13.316;2023-02-12T12:10:46;9.50;99.90
10660;DHT22;5378;53.206;13.316;2023-02-12T12:13:40;9.50;99.90
10660;DHT22;5378;53.206;13.316;2023-02-12T12:16:32;9.40;99.90
10660;DHT22;5378;53.206;13.316;2023-02-12T12:19:58;9.40;99.90
10660;DHT22;5378;53.206;13.316;2023-02-12T12:22:52;9.30;99.90
10660;DHT22;5378;53.206;13.316;2023-02-12T12:25:44;9.40;99.90
10660;DHT22;5378;53.206;13.316;2023-02-12T12:28:35;9.40;99.90
10660;DHT22;5378;53.206;13.316;2023-02-12T12:31:29;9.50;99.90
10660;DHT22;5378;53.206;13.316;2023-02-12T12:34:20;9.70;99.90
10660;DHT22;5378;53.206;13.316;2023-02-12T12:37:18;10.00;99.90
10660;DHT22;5378;53.206;13.316;2023-02-12T12:40:29;10.20;99.90
10660;DHT22;5378;53.206;13.316;2023-02-12T12:43:26;10.50;99.90
10660;DHT22;5378;53.206;13.316;2023-02-12T12:46:28;10.60;99.90
10660;DHT22;5378;53.206;13.316;2023-02-12T12:49:31;10.60;99.90
10660;DHT22;5378;53.206;13.316;2023-02-12T12:52:51;10.70;99.90
10660;DHT22;5378;53.206;13.316;2023-02-12T13:02:58;10.80;99.90
10660;DHT22;5378;53.206;13.316;2023-02-12T13:12:38;10.90;99.90
10660;DHT22;5378;53.206;13.316;2023-02-12T13:15:33;10.90;99.90
10660;DHT22;5378;53.206;13.316;2023-02-12T13:18:34;10.90;99.90
10660;DHT22;5378;53.206;13.316;2023-02-12T13:21:32;10.90;99.90
10660;DHT22;5378;53.206;13.316;2023-02-12T13:24:27;11.00;99.90
10660;DHT22;5378;53.206;13.316;2023-02-12T13:27:19;11.00;99.90
10660;DHT22;5378;53.206;13.316;2023-02-12T13:30:18;11.10;99.90
10660;DHT22;5378;53.206;13.316;2023-02-12T13:33:10;11.10;99.90
10660;DHT22;5378;53.206;13.316;2023-02-12T13:36:00;11.10;99.90
10660;DHT22;5378;53.206;13.316;2023-02-12T13:38:53;11.10;99.90
10660;DHT22;5378;53.206;13.316;2023-02-12T13:41:46;11.10;99.90
10660;DHT22;5378;53.206;13.316;2023-02-12T13:44:40;11.10;99.90
10660;DHT22;5378;53.206;13.316;2023-02-12T13:47:39;11.20;99.90
10660;DHT22;5378;53.206;13.316;2023-02-12T13:50:36;11.20;99.90
10660;DHT22;5378;53.206;13.316;2023-02-12T13:53:30;11.20;99.90
10660;DHT22;5378;53.206;13.316;2023-02-12T13:56:33;11.20;99.90
10660;DHT22;5378;53.206;13.316;2023-02-12T13:59:41;11.20;99.90
10660;DHT22;5378;53.206;13.316;2023-02-12T14:02:47;11.20;99.90
10660;DHT22;5378;53.206;13.316;2023-02-12T14:05:35;11.20;99.90
10660;DHT22;5378;53.206;13.316;2023-02-12T14:08:33;11.10;99.90
10660;DHT22;5378;53.206;13.316;2023-02-12T14:11:24;11.20;99.90
10660;DHT22;5378;53.206;13.316;2023-02-12T14:14:11;11.20;99.90
10660;DHT22;5378;53.206;13.316;2023-02-12T14:20:26;11.20;99.90
10660;DHT22;5378;53.206;13.316;2023-02-12T14:23:24;11.20;99.90
10660;DHT22;5378;53.206;13.316;2023-02-12T14:26:13;11.20;99.90
10660;DHT22;5378;53.206;13.316;2023-02-12T14:29:05;11.20;99.90
10660;DHT22;5378;53.206;13.316;2023-02-12T14:31:52;11.20;99.90
10660;DHT22;5378;53.206;13.316;2023-02-12T14:34:41;11.20;99.90
10660;DHT22;5378;53.206;13.316;2023-02-12T14:37:34;11.20;99.90
10660;DHT22;5378;53.206;13.316;2023-02-12T14:40:42;11.10;99.90
10660;DHT22;5378;53.206;13.316;2023-02-12T14:43:33;11.00;99.90
10660;DHT22;5378;53.206;13.316;2023-02-12T14:46:45;11.00;99.90
10660;DHT22;5378;53.206;13.316;2023-02-12T14:49:35;11.00;99.90
10660;DHT22;5378;53.206;13.316;2023-02-12T14:52:26;10.90;99.90
10660;DHT22;5378;53.206;13.316;2023-02-12T14:55:24;10.90;99.90
10660;DHT22;5378;53.206;13.316;2023-02-12T14:58:17;10.90;99.90
10660;DHT22;5378;53.206;13.316;2023-02-12T15:01:05;10.80;99.90
10660;DHT22;5378;53.206;13.316;2023-02-12T15:03:54;10.80;99.90
10660;DHT22;5378;53.206;13.316;2023-02-12T15:06:49;10.80;99.90
10660;DHT22;5378;53.206;13.316;2023-02-12T15:09:43;10.70;99.90
10660;DHT22;5378;53.206;13.316;2023-02-12T15:12:36;10.60;99.90
10660;DHT22;5378;53.206;13.316;2023-02-12T15:15:30;10.60;99.90
10660;DHT22;5378;53.206;13.316;2023-02-12T15:18:23;10.60;99.90
10660;DHT22;5378;53.206;13.316;2023-02-12T15:21:17;10.50;99.90
10660;DHT22;5378;53.206;13.316;2023-02-12T15:24:08;10.50;99.90
10660;DHT22;5378;53.206;13.316;2023-02-12T15:26:57;10.40;99.90
10660;DHT22;5378;53.206;13.316;2023-02-12T15:29:48;10.40;99.90
10660;DHT22;5378;53.206;13.316;2023-02-12T15:32:37;10.40;99.90
10660;DHT22;5378;53.206;13.316;2023-02-12T15:35:26;10.30;99.90
10660;DHT22;5378;53.206;13.316;2023-02-12T15:38:21;10.30;99.90
10660;DHT22;5378;53.206;13.316;2023-02-12T15:41:23;10.30;99.90
10660;DHT22;5378;53.206;13.316;2023-02-12T15:44:27;10.30;99.90
10660;DHT22;5378;53.206;13.316;2023-02-12T15:47:15;10.30;99.90
10660;DHT22;5378;53.206;13.316;2023-02-12T15:50:11;10.20;99.90
10660;DHT22;5378;53.206;13.316;2023-02-12T15:52:58;10.20;99.90
10660;DHT22;5378;53.206;13.316;2023-02-12T15:55:47;10.10;99.90
10660;DHT22;5378;53.206;13.316;2023-02-12T15:58:41;10.10;99.90
10660;DHT22;5378;53.206;13.316;2023-02-12T16:01:30;10.00;99.90
10660;DHT22;5378;53.206;13.316;2023-02-12T16:04:20;10.00;99.90
10660;DHT22;5378;53.206;13.316;2023-02-12T16:07:08;10.00;99.90
10660;DHT22;5378;53.206;13.316;2023-02-12T16:09:56;10.00;99.90
10660;DHT22;5378;53.206;13.316;2023-02-12T16:12:44;10.00;99.90
10660;DHT22;5378;53.206;13.316;2023-02-12T16:15:32;9.90;99.90
10660;DHT22;5378;53.206;13.316;2023-02-12T16:18:24;9.90;99.90
10660;DHT22;5378;53.206;13.316;2023-02-12T16:21:15;9.90;99.90
10660;DHT22;5378;53.206;13.316;2023-02-12T16:24:03;9.90;99.90
10660;DHT22;5378;53.206;13.316;2023-02-12T16:26:51;9.90;99.90
10660;DHT22;5378;53.206;13.316;2023-02-12T16:29:43;9.90;99.90
10660;DHT22;5378;53.206;13.316;2023-02-12T16:32:36;9.90;99.90
10660;DHT22;5378;53.206;13.316;2023-02-12T16:35:26;9.90;99.90
10660;DHT22;5378;53.206;13.316;2023-02-12T16:38:40;9.90;99.90
10660;DHT22;5378;53.206;13.316;2023-02-12T16:41:29;9.90;99.90
10660;DHT22;5378;53.206;13.316;2023-02-12T16:44:24;9.80;99.90
10660;DHT22;5378;53.206;13.316;2023-02-12T16:47:19;9.80;99.90
10660;DHT22;5378;53.206;13.316;2023-02-12T16:50:14;9.90;99.90
10660;DHT22;5378;53.206;13.316;2023-02-12T16:53:04;9.90;99.90
10660;DHT22;5378;53.206;13.316;2023-02-12T16:55:53;9.90;99.90
10660;DHT22;5378;53.206;13.316;2023-02-12T16:58:40;9.80;99.90
10660;DHT22;5378;53.206;13.316;2023-02-12T17:01:29;9.90;99.90
10660;DHT22;5378;53.206;13.316;2023-02-12T17:04:17;9.80;99.90
10660;DHT22;5378;53.206;13.316;2023-02-12T17:07:14;9.80;99.90
10660;DHT22;5378;53.206;13.316;2023-02-12T17:10:02;9.70;99.90
10660;DHT22;5378;53.206;13.316;2023-02-12T17:12:51;9.60;99.90
10660;DHT22;5378;53.206;13.316;2023-02-12T17:15:43;9.60;99.90
10660;DHT22;5378;53.206;13.316;2023-02-12T17:18:31;9.50;99.90
10660;DHT22;5378;53.206;13.316;2023-02-12T17:21:23;9.50;99.90
10660;DHT22;5378;53.206;13.316;2023-02-12T17:24:15;9.50;99.90
10660;DHT22;5378;53.206;13.316;2023-02-12T17:27:07;9.50;99.90
10660;DHT22;5378;53.206;13.316;2023-02-12T17:29:58;9.50;99.90
10660;DHT22;5378;53.206;13.316;2023-02-12T17:32:45;9.50;99.90
10660;DHT22;5378;53.206;13.316;2023-02-12T17:35:33;9.50;99.90
10660;DHT22;5378;53.206;13.316;2023-02-12T17:38:20;9.50;99.90
10660;DHT22;5378;53.206;13.316;2023-02-12T17:41:09;9.50;99.90
10660;DHT22;5378;53.206;13.316;2023-02-12T17:43:57;9.50;99.90
10660;DHT22;5378;53.206;13.316;2023-02-12T17:46:45;9.50;99.90
10660;DHT22;5378;53.206;13.316;2023-02-12T17:49:32;9.40;99.90
10660;DHT22;5378;53.206;13.316;2023-02-12T17:52:20;9.40;99.90
10660;DHT22;5378;53.206;13.316;2023-02-12T17:55:09;9.40;99.90
10660;DHT22;5378;53.206;13.316;2023-02-12T17:57:58;9.40;99.90
10660;DHT22;5378;53.206;13.316;2023-02-12T18:00:48;9.40;99.90
10660;DHT22;5378;53.206;13.316;2023-02-12T18:03:36;9.40;99.90
10660;DHT22;5378;53.206;13.316;2023-02-12T18:06:26;9.50;99.90
10660;DHT22;5378;53.206;13.316;2023-02-12T18:09:13;9.50;99.90
10660;DHT22;5378;53.206;13.316;2023-02-12T18:12:00;9.50;99.90
10660;DHT22;5378;53.206;13.316;2023-02-12T18:14:48;9.40;99.90
10660;DHT22;5378;53.206;13.316;2023-02-12T18:17:35;9.40;99.90
10660;DHT22;5378;53.206;13.316;2023-02-12T18:20:24;9.40;99.90
10660;DHT22;5378;53.206;13.316;2023-02-12T18:23:11;9.40;99.90
10660;DHT22;5378;53.206;13.316;2023-02-12T18:25:58;9.30;99.90
10660;DHT22;5378;53.206;13.316;2023-02-12T18:28:45;9.30;99.90
10660;DHT22;5378;53.206;13.316;2023-02-12T18:31:32;9.30;99.90
10660;DHT22;5378;53.206;13.316;2023-02-12T18:34:20;9.20;99.90
10660;DHT22;5378;53.206;13.316;2023-02-12T18:37:09;9.20;99.90